Columbia Heights, Illinois
Current Conditions -  °F | °C
As of 4:15 PM on Sunday 25 Jan 2015 (Local Time) from KGBG Reporting Station
Overcast Overcast  
Wind Chill: 15°   Ceiling: 2800
Heat Index: 29°   Visibility: 10mi
Dew Point: 24°   Wind: 22mph
Humidity: 83%   Direction: 10°N
Pressure: 29.89"   Gusts: 26mph
Location:  40.945°N, 90.3106°W
Report Text: KGBG 252215Z AUTO 01019G23KT 10SM OVC028 M02/M04 A2989 RMK AO2 T10181043
Loading
Personal Weather Stations






























Interactive Weather Map New forecast layout! Learn more

10-Day Weather Forecast

Advertisements
Track Severe Weather on mobile